Home > Products > Valid Products > TAF

000
FTUS43 KGID 231120
TAFGRI
TAF
KGRI 231120Z 2312/2412 16018G28KT P6SM FEW045 BKN100 WS012/17050KT
     FM231500 18026G33KT P6SM BKN150
     FM232300 18020G27KT P6SM VCTS BKN050CB OVC090
     FM240300 33018G24KT P6SM VCTS BKN070CB OVC100
     FM240700 31015KT P6SM OVC120=



000
FTUS43 KGID 230858 AAA
TAFGRI
TAF AMD
KGRI 230858Z 2309/2406 15018G26KT P6SM VCTS BKN100CB WS012/17050KT
     FM231400 18026G33KT P6SM BKN250
     FM232200 18023G30KT P6SM VCTS BKN050CB OVC090
     FM240400 33018G24KT P6SM VCTS BKN070CB OVC100=



000
FTUS43 KGID 230528
TAFGRI
TAF
KGRI 230528Z 2306/2406 15018G26KT P6SM BKN100 WS012/17050KT
     FM231400 18026G33KT P6SM BKN250
     FM232200 18023G30KT P6SM VCTS BKN050CB OVC090
     FM240400 33018G24KT P6SM VCTS BKN070CB OVC100=



000
FTUS43 KGID 222340
TAFGRI
TAF
KGRI 222340Z 2300/2324 15016G22KT P6SM FEW070 BKN200
     FM230300 14018G24KT P6SM BKN150
     FM230700 15021G28KT P6SM VCSH BKN100 WS015/18052KT
     FM231300 18023G30KT P6SM BKN250
     FM232300 18023G30KT P6SM VCTS BKN070CB OVC090=



000
FTUS43 KGID 221720
TAFGRI
TAF
KGRI 221720Z 2218/2318 16015G20KT P6SM SCT080 SCT200
     FM222200 16015G25KT P6SM SCT100 SCT200
     FM230800 16017G25KT P6SM SCT050 BKN100 WS015/20055KT
     FM231400 17025G33KT P6SM BKN120=



000
FTUS43 KGID 221127
TAFGRI
TAF
KGRI 221127Z 2212/2312 VRB06KT P6SM FEW150
     FM221400 15010KT P6SM SCT150
     FM221700 17018G24KT P6SM FEW060 SCT120
     FM230100 15014G19KT P6SM SCT100
     FM230800 17020G26KT P6SM SCT100=



000
FTUS43 KGID 220524
TAFGRI
TAF
KGRI 220524Z 2206/2306 VRB06KT P6SM SKC
     FM221000 15010KT P6SM FEW150
     FM221700 17018G24KT P6SM FEW060 SCT120
     FM230100 15014G19KT P6SM SCT100=



000
FTUS43 KGID 212333
TAFGRI
TAF
KGRI 212333Z 2200/2224 36012G18KT P6SM SKC
     FM220200 03010KT P6SM SKC
     FM220900 09008KT P6SM SKC
     FM221200 16011KT P6SM SCT150
     FM221800 16016G22KT P6SM SCT150=



000
FTUS43 KGID 211720
TAFGRI
TAF
KGRI 211720Z 2118/2218 35018G28KT P6SM SCT250
     FM212300 36012G18KT P6SM SKC
     FM220100 VRB05KT P6SM SCT250
     FM221400 16012KT P6SM SCT100=



000
FTUS43 KGID 211120
TAFGRI
TAF
KGRI 211120Z 2112/2212 33012KT P6SM SCT120 BKN200
     FM211400 35020G28KT P6SM SCT250
     FM212300 35012G18KT P6SM SKC
     FM220100 VRB05KT P6SM SCT250=



000
FTUS43 KGID 211004 AAB
TAFGRI
TAF AMD
KGRI 211004Z 2110/2206 23008KT P6SM SCT080 OVC150
     FM211200 32012KT P6SM SCT120 BKN200
     FM211400 35018G26KT P6SM SCT250
     FM220000 01011KT P6SM SKC=



000
FTUS43 KGID 210645 AAA
TAFGRI
TAF AMD
KGRI 210645Z 2107/2206 21010KT 6SM -TSRA SCT050 BKN080CB
     FM211000 27010KT P6SM SCT050 BKN100
     FM211200 32012KT P6SM SCT080 BKN150
     FM211400 35018G26KT P6SM SCT250
     FM220000 01011KT P6SM SKC=



000
FTUS43 KGID 210520
TAFGRI
TAF
KGRI 210520Z 2106/2206 20010KT P6SM SCT080 BKN120
     FM210800 24010KT P6SM VCSH SCT050 BKN080
     FM211000 32012KT P6SM SCT080 BKN150
     FM211300 35018G26KT P6SM SCT250
     FM220000 01011KT P6SM SKC=



000
FTUS43 KGID 202331
TAFGRI
TAF
KGRI 202331Z 2100/2124 22009KT P6SM SCT050 BKN100
     FM210900 32011KT P6SM SCT100 BKN250
     FM211500 36018G25KT P6SM BKN250=



000
FTUS43 KGID 201720
TAFGRI
TAF
KGRI 201720Z 2018/2118 22009KT P6SM SCT050 BKN100
     FM210900 32011KT P6SM SCT250
     FM211500 36018G25KT P6SM FEW250=



    US Dept of Commerce
    National Oceanic and Atmospheric Administration
    National Weather Service
    1325 East West Highway
    Silver Spring, MD 20910
    Page Author: NWS Internet Services Team
Disclaimer
Information Quality
Credits
Glossary
Privacy Policy
Freedom of Information Act (FOIA)
About Us
Career Opportunities